ADDS METAR Data INFO
IDs: Format: Raw Decoded Include TAF

Data at: 0857 UTC 22 Feb 2018

KK88 220835Z AUTO 00000KT 4SM M02/M02 A3037 RMK AO1 T10201020
KK88 220815Z AUTO 00000KT 4SM M02/M02 A3037 RMK AO1 T10201020
KK88 220755Z AUTO 00000KT 4SM M02/M02 A3037 RMK AO1 T10211021
KK88 220735Z AUTO 00000KT 5SM M02/M02 A3038 RMK AO1 T10221022
KK88 220715Z AUTO 32003KT 5SM M02/M02 A3038 RMK AO1 T10251025
KK88 220655Z AUTO 00000KT 4SM M02/M02 A3038 RMK AO1 T10251025
KK88 220635Z AUTO 00000KT 4SM M02/M02 A3038 RMK AO1 T10251025
KK88 220615Z AUTO 00000KT 4SM M02/M02 A3040 RMK AO1 T10251025
KK88 220555Z AUTO 00000KT 4SM M03/M03 A3041 RMK AO1 T10261026 11026 21030
KK88 220535Z AUTO 00000KT 5SM M03/M03 A3041 RMK AO1 T10261026
KK88 220515Z AUTO 00000KT 7SM M03/M03 A3040 RMK AO1 T10271027
KK88 220455Z AUTO 32004KT 7SM M03/M03 A3040 RMK AO1 T10271027
KK88 220435Z AUTO 32004KT 10SM M03/M03 A3041 RMK AO1 T10271027
KK88 220415Z AUTO 00000KT 10SM M03/M03 A3041 RMK AO1 T10281029
KK88 220355Z AUTO 32004KT 10SM M03/M03 A3042 RMK AO1 T10281030
KK88 220035Z AUTO 32003KT 5SM M03/M03 A3046 RMK AO1 T10301032
KK88 220015Z AUTO 32006KT 7SM M03/M03 A3045 RMK AO1 T10281033
KK88 212355Z AUTO 32004KT 5SM M03/M03 A3045 RMK AO1 T10271035 11021 21043
KK88 212335Z AUTO 32003KT 7SM M02/M03 A3045 RMK AO1 T10251033
KK88 212315Z AUTO 32004KT 7SM M02/M03 A3046 RMK AO1 T10251035
KK88 212255Z AUTO 32003KT 7SM M02/M03 A3048 RMK AO1 T10241032
KK88 212235Z AUTO 32004KT 5SM M02/M03 A3048 RMK AO1 T10251035
KK88 212215Z AUTO 32004KT 5SM M02/M03 A3046 RMK AO1 T10231033
KK88 212155Z AUTO 32004KT 5SM M02/M03 A3046 RMK AO1 T10221035
KK88 212135Z AUTO 32004KT 4SM M02/M03 A3046 RMK AO1 T10231035
KK88 212115Z AUTO 32005KT 4SM M02/M04 A3045 RMK AO1 T10251036
KK88 212055Z AUTO 32004KT 4SM M02/M04 A3046 RMK AO1 T10251038
KK88 212035Z AUTO 32004KT 3SM M02/M04 A3046 RMK AO1 T10251039
KK88 212015Z AUTO 32004KT 3SM M03/M04 A3046 RMK AO1 T10261038
KK88 212000Z AUTO 32005KT 2 1/2SM M03/M04 A3047 RMK AO1 T10281040
KK88 211935Z AUTO 32003KT 2 1/2SM M03/M04 A3046 RMK AO1 T10301042
KK88 211915Z AUTO 32004KT 2SM M03/M04 A3047 RMK AO1 T10331045
KK88 211835Z AUTO 32004KT 2SM M04/M05 A3050 RMK AO1 T10391051
KK88 211815Z AUTO 32004KT 2SM M04/M05 A3050 RMK AO1 T10411050
KK88 211800Z AUTO 32005KT 1 3/4SM M04/M05 A3051 RMK AO1 T10421051
KK88 211735Z AUTO 32004KT 1 3/4SM M05/M06 A3051 RMK AO1 T10501061 PNO
KK88 211715Z AUTO 00000KT 1 1/2SM M05/M06 A3052 RMK AO1 T10551063
KK88 211655Z AUTO 32003KT M06/M07 A3052 RMK AO1 T10601070
KK88 211635Z AUTO 32003KT M06/M07 A3053 RMK AO1 T10651074 PNO
KK88 211615Z AUTO 00000KT M07/M08 A3053 RMK AO1 T10671077
KK88 211555Z AUTO 00000KT M07/M08 A3053 RMK AO1 T10701080 PNO
KK88 211535Z AUTO 32003KT M07/M08 A3054 RMK AO1 T10721082
KK88 211520Z AUTO 00000KT A3055 RMK AO1
KK88 211500Z AUTO 00000KT M08/M09 A3055 RMK AO1 T10761087
KK88 211440Z AUTO 00000KT 1 1/2SM M08/M09 A3054 RMK AO1 T10791090
KK88 211415Z AUTO 00000KT M08/M09 A3055 RMK AO1 T10811093
KK88 211355Z AUTO 00000KT M08/M09 A3053 RMK AO1 T10821095 PNO
KK88 211340Z AUTO 00000KT 1 1/2SM M08/M09 A3052 RMK AO1 T10831095 PNO
KK88 211320Z AUTO 00000KT 1 3/4SM M08/M10 A3050 RMK AO1 T10831096 PNO
KK88 211255Z AUTO 00000KT 2 1/2SM M08/M09 A3049 RMK AO1 T10831095 PNO